Time;durP1;ratioP1;P1;durP2;ratioP2;P2;SDS_P1;SDS_P2;PMS_P1;PMS_P2;Temp;Humidity;BMP_temperature;BMP_pressure;BME280_temperature;BME280_humidity;BME280_pressure;Samples;Min_cycle;Max_cycle;Signal;HPM_P1;HPM_P2
2022/01/29 00:02:17;;;;;;;60.80;32.42;;;;;;;4.82;100.00;102777.44;5071653;28;20072;-89
2022/01/29 00:04:42;;;;;;;54.72;32.20;;;;;;;4.96;99.91;102791.56;5055358;28;20033;-89
2022/01/29 00:07:09;;;;;;;49.15;29.48;;;;;;;5.13;99.15;102806.28;5038241;28;20396;-89
2022/01/29 00:09:34;;;;;;;49.42;29.10;;;;;;;4.89;99.33;102753.59;5055363;28;20028;-89
2022/01/29 00:12:00;;;;;;;55.00;31.85;;;;;;;5.14;99.32;102798.06;5072932;28;20090;-89
2022/01/29 00:14:25;;;;;;;54.10;32.00;;;;;;;4.97;99.69;102758.28;5071478;28;20115;-89
2022/01/29 00:16:51;;;;;;;61.30;33.70;;;;;;;4.77;99.45;102715.13;5071313;28;20024;-89
2022/01/29 00:19:17;;;;;;;53.45;30.00;;;;;;;4.98;99.08;102743.88;5071647;28;20423;-89
2022/01/29 00:21:43;;;;;;;60.40;33.95;;;;;;;5.10;99.54;102783.16;5055263;28;20032;-89
2022/01/29 00:24:08;;;;;;;54.80;31.00;;;;;;;4.78;99.45;102710.59;5072114;28;20038;-90
2022/01/29 00:26:33;;;;;;;54.30;31.90;;;;;;;4.72;99.51;102690.47;5055363;28;20032;-90
2022/01/29 00:29:04;;;;;;;54.33;32.58;;;;;;;4.87;99.29;102715.19;5071787;28;20049;-90
2022/01/29 00:31:33;;;;;;;57.20;33.70;;;;;;;5.00;99.55;102740.03;5072296;28;20529;-89
2022/01/29 00:33:58;;;;;;;55.17;33.45;;;;;;;4.99;99.95;102732.97;5072089;28;20029;-89
2022/01/29 00:36:23;;;;;;;54.67;32.53;;;;;;;4.79;99.86;102702.41;5054647;28;20024;-89
2022/01/29 00:38:49;;;;;;;58.85;32.63;;;;;;;5.02;99.54;102721.94;5055590;28;20029;-90
2022/01/29 00:41:14;;;;;;;54.22;33.13;;;;;;;5.02;99.77;102716.56;5072017;28;20590;-89
2022/01/29 00:43:40;;;;;;;58.83;32.80;;;;;;;5.16;99.52;102736.03;5054923;28;20484;-89
2022/01/29 00:46:05;;;;;;;59.50;33.33;;;;;;;5.21;99.64;102744.56;5072231;28;20108;-89
2022/01/29 00:48:31;;;;;;;53.28;32.72;;;;;;;4.85;99.68;102691.09;5056868;28;20051;-90
2022/01/29 00:51:00;;;;;;;56.75;33.55;;;;;;;5.22;99.52;102748.97;5058848;28;20029;-89
2022/01/29 00:53:26;;;;;;;52.17;31.33;;;;;;;4.86;99.73;102689.28;5058728;28;20020;-89
2022/01/29 00:56:05;;;;;;;59.88;34.22;;;;;;;5.22;99.96;102746.28;5076848;28;20056;-90
2022/01/29 00:58:31;;;;;;;53.85;32.22;;;;;;;4.83;99.87;102668.03;5059634;28;20041;-89
2022/01/29 01:00:57;;;;;;;61.15;32.72;;;;;;;5.09;99.82;102706.09;5091911;28;20024;-89
2022/01/29 01:03:22;;;;;;;54.90;32.13;;;;;;;4.86;99.75;102681.22;5075415;28;20033;-89
2022/01/29 01:05:47;;;;;;;59.85;32.90;;;;;;;5.24;100.00;102726.31;5075334;28;20468;-89
2022/01/29 01:08:15;;;;;;;57.03;31.38;;;;;;;4.98;99.87;102682.84;5041853;28;20036;-89
2022/01/29 01:10:41;;;;;;;53.97;30.20;;;;;;;5.21;100.00;102723.03;5058191;28;20032;-89
2022/01/29 01:13:06;;;;;;;54.50;31.65;;;;;;;5.18;100.00;102708.03;5058171;28;20039;-89
2022/01/29 01:15:32;;;;;;;55.13;33.70;;;;;;;5.09;100.00;102690.84;5058184;28;20086;-89
2022/01/29 01:17:59;;;;;;;56.80;32.75;;;;;;;4.97;100.00;102659.59;5058269;28;20124;-89
2022/01/29 01:20:25;;;;;;;57.33;33.83;;;;;;;4.99;100.00;102667.53;5074686;28;20032;-89
2022/01/29 01:22:50;;;;;;;57.35;32.63;;;;;;;4.98;100.00;102664.00;5074788;28;20035;-89
2022/01/29 01:25:16;;;;;;;53.13;31.45;;;;;;;5.04;100.00;102663.47;5058219;28;20045;-89
2022/01/29 01:27:41;;;;;;;58.65;34.20;;;;;;;5.06;100.00;102666.88;5074041;28;20032;-88
2022/01/29 01:30:07;;;;;;;52.83;32.05;;;;;;;4.74;100.00;102602.47;5057905;28;20082;-89
2022/01/29 01:32:33;;;;;;;58.58;34.20;;;;;;;4.73;100.00;102601.59;5074682;28;20024;-88
2022/01/29 01:35:09;;;;;;;55.50;30.55;;;;;;;5.00;100.00;102655.81;5058101;28;20035;-89
2022/01/29 01:37:45;;;;;;;53.63;32.08;;;;;;;4.73;100.00;102590.00;5074839;28;20040;-89
2022/01/29 01:40:11;;;;;;;50.80;30.92;;;;;;;5.08;100.00;102648.75;5044161;28;20115;-89
2022/01/29 01:42:37;;;;;;;53.80;33.10;;;;;;;4.96;100.00;102644.47;5041089;28;20052;-89
2022/01/29 01:45:03;;;;;;;56.72;33.92;;;;;;;4.94;100.00;102638.34;5057427;28;20404;-88
2022/01/29 01:47:28;;;;;;;59.85;33.88;;;;;;;5.02;100.00;102669.97;5075431;28;20029;-89
2022/01/29 01:49:57;;;;;;;51.40;32.03;;;;;;;4.81;100.00;102633.19;5057382;28;20035;-89
2022/01/29 01:52:22;;;;;;;58.67;33.15;;;;;;;4.71;100.00;102610.75;5058110;28;20446;-89
2022/01/29 01:54:47;;;;;;;59.58;33.50;;;;;;;4.97;100.00;102648.00;5057273;28;20473;-89
2022/01/29 01:57:17;;;;;;;58.85;35.00;;;;;;;4.75;100.00;102617.59;5075591;28;20040;-89
2022/01/29 01:59:43;;;;;;;55.10;35.00;;;;;;;4.81;100.00;102635.03;5074734;28;20021;-88
2022/01/29 02:02:09;;;;;;;58.13;34.58;;;;;;;4.52;100.00;102590.03;5056820;28;20033;-89
2022/01/29 02:04:34;;;;;;;54.33;30.52;;;;;;;4.96;100.00;102636.41;5057101;28;20120;-88
2022/01/29 02:07:01;;;;;;;55.63;33.55;;;;;;;4.58;100.00;102586.81;5073764;28;20534;-89
2022/01/29 02:09:27;;;;;;;55.42;32.03;;;;;;;4.56;100.00;102576.19;5074096;28;20105;-88
2022/01/29 02:11:58;;;;;;;52.88;31.15;;;;;;;4.83;100.00;102616.94;5074293;28;20037;-89
2022/01/29 02:14:28;;;;;;;56.70;32.20;;;;;;;4.67;100.00;102595.91;5090670;28;20123;-88
2022/01/29 02:16:54;;;;;;;53.90;28.70;;;;;;;4.59;100.00;102572.34;5058835;28;20082;-88
2022/01/29 02:19:19;;;;;;;55.33;33.88;;;;;;;4.63;100.00;102592.63;5076215;28;20025;-88
2022/01/29 02:21:45;;;;;;;52.40;31.58;;;;;;;4.75;100.00;102598.75;5057947;28;20135;-88
2022/01/29 02:24:10;;;;;;;54.85;32.15;;;;;;;4.54;100.00;102564.69;5073969;28;20031;-88
2022/01/29 02:26:36;;;;;;;54.42;33.83;;;;;;;4.62;100.00;102576.63;5074822;28;20029;-88
2022/01/29 02:29:02;;;;;;;53.08;30.35;;;;;;;4.80;100.00;102625.25;5081885;28;20131;-88
2022/01/29 02:31:30;;;;;;;53.60;31.17;;;;;;;4.81;100.00;102594.69;5060664;28;20533;-89
2022/01/29 02:33:55;;;;;;;52.63;31.13;;;;;;;4.67;100.00;102586.00;5094641;28;20055;-88
2022/01/29 02:36:21;;;;;;;53.72;32.42;;;;;;;4.74;100.00;102584.47;5094430;28;20032;-89
2022/01/29 02:38:46;;;;;;;52.47;32.22;;;;;;;4.82;100.00;102583.78;5076693;28;20055;-88
2022/01/29 02:41:15;;;;;;;52.78;28.65;;;;;;;4.65;100.00;102566.47;5059575;28;20032;-89
2022/01/29 02:43:46;;;;;;;51.63;31.83;;;;;;;4.46;100.00;102521.53;5076392;28;20422;-88
2022/01/29 02:48:44;;;;;;;;;;;;;;;4.88;100.00;102588.63;5078057;28;20071;-88
2022/01/29 02:51:10;;;;;;;51.33;30.40;;;;;;;4.80;100.00;102583.09;5059645;28;20419;-88
2022/01/29 02:53:36;;;;;;;53.85;32.25;;;;;;;4.84;100.00;102583.66;5093041;28;20122;-88
2022/01/29 02:56:01;;;;;;;64.50;33.65;;;;;;;4.65;100.00;102558.41;5075936;28;20511;-88
2022/01/29 02:58:27;;;;;;;60.53;33.75;;;;;;;4.43;100.00;102521.78;5058531;28;20051;-89
2022/01/29 03:00:53;;;;;;;60.50;34.33;;;;;;;4.59;100.00;102541.94;5059681;28;20123;-89
2022/01/29 03:03:20;;;;;;;56.65;30.42;;;;;;;4.55;100.00;102514.50;5094604;28;20078;-89
2022/01/29 03:05:46;;;;;;;55.75;32.67;;;;;;;4.88;100.00;102564.41;5076583;28;20035;-89
2022/01/29 03:08:11;;;;;;;55.33;30.63;;;;;;;4.71;100.00;102548.91;5059448;28;20377;-89
2022/01/29 03:10:37;;;;;;;60.92;32.00;;;;;;;4.54;100.00;102510.09;5093392;28;20039;-89
2022/01/29 03:13:03;;;;;;;58.20;31.45;;;;;;;4.83;100.00;102569.38;5075168;28;20020;-89
2022/01/29 03:15:29;;;;;;;56.72;30.63;;;;;;;4.83;100.00;102552.41;5075630;28;20024;-89
2022/01/29 03:17:54;;;;;;;60.28;32.85;;;;;;;4.44;100.00;102498.44;5075783;28;20051;-89
2022/01/29 03:20:19;;;;;;;60.80;32.72;;;;;;;4.88;100.00;102561.72;5059142;28;20062;-89
2022/01/29 03:22:45;;;;;;;63.38;33.80;;;;;;;4.77;100.00;102547.53;5075820;28;20126;-88
2022/01/29 03:25:13;;;;;;;64.95;34.60;;;;;;;4.64;100.00;102520.91;5092710;28;20529;-89
2022/01/29 03:27:39;;;;;;;64.78;34.50;;;;;;;4.84;100.00;102554.06;5075979;28;20158;-89
2022/01/29 03:30:06;;;;;;;62.22;32.97;;;;;;;4.89;100.00;102543.78;5072220;28;20128;-89
2022/01/29 03:32:34;;;;;;;63.22;32.97;;;;;;;4.73;100.00;102512.00;5056087;28;20114;-89
2022/01/29 03:35:00;;;;;;;64.53;33.53;;;;;;;4.44;100.00;102466.19;5073647;28;20032;-89
2022/01/29 03:37:28;;;;;;;67.05;35.22;;;;;;;4.73;100.00;102510.16;5089284;28;20392;-88
2022/01/29 03:40:01;;;;;;;63.95;33.92;;;;;;;4.53;100.00;102473.44;5072334;28;20480;-89
2022/01/29 03:42:29;;;;;;;62.92;33.15;;;;;;;4.48;100.00;102463.09;5072312;28;20037;-89
2022/01/29 03:45:03;;;;;;;71.75;34.53;;;;;;;4.98;100.00;102532.19;5072398;28;20035;-89
2022/01/29 03:47:28;;;;;;;59.88;33.38;;;;;;;4.56;100.00;102449.84;5055321;28;20412;-89
2022/01/29 03:49:57;;;;;;;68.65;34.33;;;;;;;4.90;100.00;102513.19;5071925;28;20040;-89
2022/01/29 03:52:22;;;;;;;62.53;33.25;;;;;;;4.75;100.00;102493.88;5056055;28;20063;-89
2022/01/29 03:54:47;;;;;;;60.08;31.45;;;;;;;4.92;100.00;102516.59;5055613;28;20392;-88
2022/01/29 03:57:13;;;;;;;58.85;30.80;;;;;;;4.99;100.00;102527.66;5055909;28;20051;-89
2022/01/29 03:59:38;;;;;;;59.33;30.63;;;;;;;4.57;100.00;102459.56;5073112;28;20495;-90
2022/01/29 04:02:04;;;;;;;58.83;30.95;;;;;;;4.98;100.00;102499.91;5055522;28;20543;-89
2022/01/29 04:04:29;;;;;;;55.00;29.13;;;;;;;4.79;100.00;102465.75;5054828;28;20492;-89
2022/01/29 04:06:59;;;;;;;59.00;30.95;;;;;;;5.02;100.00;102511.22;5072112;28;20427;-89
2022/01/29 04:09:25;;;;;;;52.95;28.90;;;;;;;4.67;100.00;102445.34;5055706;28;20484;-89
2022/01/29 04:11:50;;;;;;;56.75;30.98;;;;;;;4.93;100.00;102488.69;5072844;28;20036;-89
2022/01/29 04:14:18;;;;;;;48.83;26.10;;;;;;;5.08;100.00;102498.09;5073253;28;20028;-89
2022/01/29 04:16:44;;;;;;;52.58;28.70;;;;;;;4.77;100.00;102443.53;5055137;28;20492;-89
2022/01/29 04:19:11;;;;;;;48.78;26.98;;;;;;;4.76;100.00;102449.03;5071989;28;20116;-89
2022/01/29 04:21:36;;;;;;;49.03;27.27;;;;;;;4.97;100.00;102455.16;5088214;28;20032;-89
2022/01/29 04:24:02;;;;;;;51.00;28.90;;;;;;;4.83;100.00;102439.44;5071907;28;20036;-89
2022/01/29 04:26:33;;;;;;;47.83;27.33;;;;;;;4.84;100.00;102422.28;5054836;28;20029;-89
2022/01/29 04:28:59;;;;;;;47.63;27.73;;;;;;;4.89;100.00;102426.28;5071390;28;20083;-89
2022/01/29 04:31:24;;;;;;;53.45;27.48;;;;;;;5.01;100.00;102448.50;5072568;28;20035;-89
2022/01/29 04:33:50;;;;;;;50.45;27.48;;;;;;;5.04;100.00;102448.22;5072102;28;20037;-89
2022/01/29 04:36:18;;;;;;;46.28;27.40;;;;;;;5.39;100.00;102492.59;5054758;28;20031;-89
2022/01/29 04:38:43;;;;;;;46.38;26.88;;;;;;;5.38;100.00;102492.75;5055228;28;20086;-89
2022/01/29 04:41:09;;;;;;;47.38;27.27;;;;;;;5.10;100.00;102442.28;5054717;28;20024;-89
2022/01/29 04:43:36;;;;;;;50.30;29.00;;;;;;;5.04;100.00;102433.94;5054914;28;20396;-89
2022/01/29 04:46:02;;;;;;;50.90;27.85;;;;;;;5.41;100.00;102484.38;5071718;28;20427;-89
2022/01/29 04:48:28;;;;;;;52.13;28.60;;;;;;;5.24;100.00;102440.16;5071793;28;20058;-89
2022/01/29 04:50:54;;;;;;;52.50;28.15;;;;;;;5.12;100.00;102411.72;5072645;28;20499;-89
2022/01/29 04:53:20;;;;;;;48.20;26.95;;;;;;;5.20;100.00;102414.56;5071184;28;20037;-89
2022/01/29 04:55:45;;;;;;;47.38;26.73;;;;;;;5.20;100.00;102419.94;5072492;28;20025;-89
2022/01/29 04:58:11;;;;;;;49.03;27.77;;;;;;;5.60;100.00;102478.16;5071167;28;20021;-89
2022/01/29 05:00:37;;;;;;;54.70;28.35;;;;;;;5.35;100.00;102420.34;5054925;28;20131;-89
2022/01/29 05:03:15;;;;;;;45.90;25.00;;;;;;;5.23;100.00;102406.19;5072238;28;20118;-88
2022/01/29 05:05:42;;;;;;;51.75;28.17;;;;;;;5.20;100.00;102390.34;5054479;28;20416;-89
2022/01/29 05:08:08;;;;;;;53.03;29.90;;;;;;;5.64;100.00;102463.41;5054437;28;20458;-89
2022/01/29 05:10:34;;;;;;;56.13;29.85;;;;;;;5.62;100.00;102449.22;5072399;28;20023;-89
2022/01/29 05:13:04;;;;;;;57.70;29.58;;;;;;;5.48;100.00;102420.91;5054917;28;20039;-89
2022/01/29 05:29:06;;;;;;;47.25;26.98;;;;;;;5.63;100.00;102405.16;5079823;28;20097;-89
2022/01/29 05:31:31;;;;;;;51.00;29.10;;;;;;;5.80;100.00;102409.81;5092174;28;20417;-89
2022/01/29 05:33:58;;;;;;;51.00;29.17;;;;;;;5.48;100.00;102366.19;5075610;28;20118;-89
2022/01/29 05:36:23;;;;;;;55.78;31.80;;;;;;;5.63;100.00;102392.53;5095209;28;20024;-90
2022/01/29 05:38:49;;;;;;;54.63;31.13;;;;;;;5.71;100.00;102399.88;5061800;28;20166;-89
2022/01/29 05:41:14;;;;;;;60.38;32.22;;;;;;;5.88;100.00;102435.16;5094850;28;20232;-90
2022/01/29 05:43:41;;;;;;;56.75;31.20;;;;;;;5.56;100.00;102383.34;5061511;28;20040;-90
2022/01/29 05:46:07;;;;;;;56.85;31.45;;;;;;;5.58;100.00;102385.88;5094792;28;20028;-90
2022/01/29 05:48:32;;;;;;;52.88;31.73;;;;;;;5.86;100.00;102416.47;5060823;28;20395;-90
2022/01/29 05:51:00;;;;;;;53.30;31.33;;;;;;;5.86;100.00;102423.66;5077780;28;20085;-88
2022/01/29 05:53:25;;;;;;;53.83;31.77;;;;;;;5.96;100.00;102427.19;5077284;28;20024;-89
2022/01/29 05:55:51;;;;;;;54.88;31.70;;;;;;;5.97;100.00;102419.00;5077890;28;20039;-89
2022/01/29 05:58:16;;;;;;;54.63;32.00;;;;;;;5.98;100.00;102422.56;5060907;28;20054;-89
2022/01/29 06:00:42;;;;;;;53.30;32.13;;;;;;;5.74;100.00;102371.81;5044477;28;20403;-89
2022/01/29 06:03:08;;;;;;;50.10;30.10;;;;;;;5.86;100.00;102381.44;5044495;28;20077;-89
2022/01/29 06:05:35;;;;;;;53.25;31.95;;;;;;;5.66;100.00;102359.09;5095579;28;20032;-93
2022/01/29 06:08:01;;;;;;;54.38;30.80;;;;;;;5.71;100.00;102355.94;5077266;28;20024;-90
2022/01/29 06:10:27;;;;;;;51.22;31.45;;;;;;;5.76;100.00;102351.00;5077699;28;20032;-88
2022/01/29 06:13:08;;;;;;;53.30;30.55;;;;;;;5.84;100.00;102355.63;5078108;28;20063;-93
2022/01/29 06:16:26;;;;;;;51.47;31.27;;;;;;;5.80;100.00;102345.16;5078164;28;20123;-94
2022/01/29 06:26:23;;;;;;;54.15;30.15;;;;;;;6.27;100.00;102400.03;5095822;28;20518;-94
2022/01/29 08:02:44;;;;;;;46.13;26.77;;;;;;;6.86;100.00;102335.78;5139937;23;20066;-95
2022/01/29 08:06:44;;;;;;;;;;;;;;;;;;;;;
2022/01/29 08:17:04;;;;;;;39.97;26.92;;;;;;;7.13;100.00;102337.56;4795671;30;20038;-93
2022/01/29 08:30:19;;;;;;;38.40;28.48;;;;;;;7.23;100.00;102313.13;4787155;30;20038;-95
2022/01/29 08:33:17;;;;;;;40.40;29.48;;;;;;;7.32;100.00;102317.63;4772240;30;20035;-94
2022/01/29 08:38:49;;;;;;;39.88;27.08;;;;;;;7.08;100.00;102250.78;4803743;29;20087;-90
2022/01/29 08:41:14;;;;;;;35.60;26.77;;;;;;;7.27;100.00;102265.94;4856819;29;20042;-90
2022/01/29 08:43:42;;;;;;;37.72;27.10;;;;;;;7.51;100.00;102294.09;4896206;29;20051;-90
2022/01/29 08:46:08;;;;;;;37.15;27.73;;;;;;;7.38;100.00;102287.28;4902022;29;20043;-90
2022/01/29 08:48:33;;;;;;;35.30;25.85;;;;;;;7.27;100.00;102246.19;4917576;29;20047;-90
2022/01/29 08:50:59;;;;;;;36.92;26.50;;;;;;;7.47;100.00;102260.31;4917449;29;20040;-90
2022/01/29 08:53:25;;;;;;;35.55;26.02;;;;;;;7.46;100.00;102266.72;4917331;29;20048;-90
2022/01/29 08:55:50;;;;;;;33.70;25.50;;;;;;;7.72;100.00;102293.69;4916901;29;20519;-87
2022/01/29 08:58:16;;;;;;;35.55;26.50;;;;;;;7.74;100.00;102286.28;4901655;29;20055;-86
2022/01/29 09:00:45;;;;;;;32.75;25.85;;;;;;;7.37;100.00;102238.84;4909805;29;20056;-87
2022/01/29 09:03:11;;;;;;;33.53;26.00;;;;;;;7.59;100.00;102274.38;4913320;29;20052;-86
2022/01/29 09:05:37;;;;;;;31.58;24.45;;;;;;;7.57;100.00;102254.78;5025519;23;20071;-87
2022/01/29 09:08:06;;;;;;;32.72;24.52;;;;;;;7.61;100.00;102262.41;4906172;29;20468;-88
2022/01/29 09:10:31;;;;;;;34.35;24.92;;;;;;;7.45;100.00;102232.63;4922851;29;20122;-87
2022/01/29 09:12:57;;;;;;;31.67;24.25;;;;;;;7.79;100.00;102270.44;4921212;29;20543;-88
2022/01/29 09:15:23;;;;;;;30.40;23.75;;;;;;;7.56;100.00;102213.44;4899801;29;20115;-88
2022/01/29 09:17:49;;;;;;;30.70;24.55;;;;;;;7.95;100.00;102279.63;4902600;29;20028;-88
2022/01/29 09:20:17;;;;;;;28.55;21.55;;;;;;;7.89;100.00;102256.81;4921121;29;20495;-88
2022/01/29 09:22:43;;;;;;;31.08;23.25;;;;;;;8.05;100.00;102280.34;4937958;29;20035;-88
2022/01/29 09:25:09;;;;;;;28.48;21.90;;;;;;;8.07;100.00;102279.19;4905824;29;20040;-89
2022/01/29 09:27:34;;;;;;;27.15;20.92;;;;;;;8.13;100.00;102261.44;4905511;29;20027;-89
2022/01/29 09:30:00;;;;;;;24.20;17.60;;;;;;;8.14;100.00;102284.75;4938650;29;20091;-89
2022/01/29 09:32:26;;;;;;;27.83;21.42;;;;;;;7.79;100.00;102210.97;4921128;29;20266;-88
2022/01/29 09:34:54;;;;;;;27.65;21.83;;;;;;;7.93;100.00;102241.97;4921224;29;20040;-89
2022/01/29 09:37:22;;;;;;;25.02;20.08;;;;;;;8.02;100.00;102237.44;4921877;29;20039;-88
2022/01/29 09:39:48;;;;;;;26.85;20.08;;;;;;;8.15;100.00;102256.72;4920120;29;20087;-88
2022/01/29 09:42:19;;;;;;;28.13;21.23;;;;;;;8.00;100.00;102229.47;4905079;29;20142;-87
2022/01/29 09:44:47;;;;;;;28.50;20.90;;;;;;;8.23;100.00;102262.13;4906309;29;20524;-88
2022/01/29 09:47:17;;;;;;;27.42;21.08;;;;;;;8.00;100.00;102215.09;4920326;29;20019;-88
2022/01/29 09:49:43;;;;;;;26.98;21.10;;;;;;;8.34;100.00;102282.63;4937720;29;20042;-88
2022/01/29 09:52:09;;;;;;;24.83;19.65;;;;;;;8.29;100.00;102265.19;4905498;29;20485;-88
2022/01/29 09:54:35;;;;;;;25.55;20.52;;;;;;;8.34;100.00;102276.34;4921705;29;20066;-88
2022/01/29 09:57:03;;;;;;;27.17;20.45;;;;;;;8.26;100.00;102272.63;4903654;29;20054;-88
2022/01/29 09:59:29;;;;;;;25.33;19.63;;;;;;;8.25;100.00;102267.38;4919907;29;20376;-89
2022/01/29 10:02:00;;;;;;;25.05;19.17;;;;;;;8.45;100.00;102275.25;4904887;29;20032;-89
2022/01/29 10:04:43;;;;;;;25.33;19.63;;;;;;;8.25;100.00;102221.41;4904819;29;20444;-88
2022/01/29 10:07:14;;;;;;;26.52;21.13;;;;;;;8.53;100.00;102264.41;4895263;29;20468;-89
2022/01/29 10:09:43;;;;;;;25.77;20.20;;;;;;;8.57;100.00;102258.50;4917198;29;20197;-88
2022/01/29 10:12:27;;;;;;;27.02;20.13;;;;;;;8.74;100.00;102275.63;4871351;29;20035;-88
2022/01/29 10:15:20;;;;;;;24.67;18.77;;;;;;;8.77;100.00;102272.56;4902990;29;20126;-92
2022/01/29 10:18:54;;;;;;;25.25;20.55;;;;;;;8.62;100.00;102224.69;4917188;29;20127;-94
2022/01/29 10:21:29;;;;;;;27.15;20.70;;;;;;;8.74;100.00;102236.88;4936977;29;20043;-92
2022/01/29 10:24:50;;;;;;;23.88;19.52;;;;;;;8.78;100.00;102212.03;4922564;29;20032;-93
2022/01/29 10:27:40;;;;;;;23.23;19.15;;;;;;;9.10;100.00;102248.19;4899456;29;20408;-94
2022/01/29 10:30:30;;;;;;;;;;;;;;;;;;;;;
2022/01/29 10:33:59;;;;;;;;;;;;;;;;;;;;;
2022/01/29 10:36:41;;;;;;;23.60;18.83;;;;;;;8.85;99.63;102192.38;4937743;29;20055;-94
2022/01/29 10:39:50;;;;;;;22.52;17.27;;;;;;;9.23;98.97;102227.88;4921818;29;20369;-93
2022/01/29 10:42:37;;;;;;;23.85;17.52;;;;;;;8.95;99.50;102185.78;4921257;29;20433;-93
2022/01/29 10:45:50;;;;;;;;;;;;;;;;;;;;;
2022/01/29 10:48:46;;;;;;;21.10;16.43;;;;;;;8.97;98.62;102165.81;4920522;29;20391;-93
2022/01/29 10:58:14;;;;;;;;;;;;;;;;;;;;;
2022/01/29 11:01:41;;;;;;;16.75;14.40;;;;;;;9.03;97.25;102155.13;4923169;29;20054;-95
2022/01/29 11:04:27;;;;;;;16.33;12.55;;;;;;;9.38;96.18;102207.16;4909997;29;20407;-95
2022/01/29 11:11:33;;;;;;;;;;;;;;;;;;;;;
2022/01/29 11:15:32;;;;;;;;;;;;;;;;;;;;;
2022/01/29 11:18:37;;;;;;;;;;;;;;;;;;;;;
2022/01/29 11:25:36;;;;;;;13.00;8.38;;;;;;;9.65;93.74;102180.63;4827037;29;20156;-95
2022/01/29 11:53:01;;;;;;;10.95;5.70;;;;;;;10.40;88.24;102111.34;4802523;29;20083;-94
2022/01/29 11:59:20;;;;;;;7.18;5.65;;;;;;;10.60;88.14;102099.97;4848225;29;20108;-93
2022/01/29 12:02:06;;;;;;;7.85;5.65;;;;;;;10.47;87.41;102073.50;4881077;29;20052;-93
2022/01/29 12:05:03;;;;;;;7.85;5.18;;;;;;;10.51;87.62;102112.78;4921286;29;20412;-93
2022/01/29 12:11:32;;;;;;;8.27;5.10;;;;;;;10.45;87.24;102100.81;4921978;29;20041;-93
2022/01/29 12:14:23;;;;;;;7.90;4.93;;;;;;;10.41;87.33;102110.34;4919256;29;20481;-93
2022/01/29 12:17:08;;;;;;;6.32;4.80;;;;;;;10.43;87.89;102089.28;4919749;29;20298;-93
2022/01/29 12:19:44;;;;;;;6.63;4.90;;;;;;;10.10;87.73;102045.31;4919707;29;20120;-93
2022/01/29 12:22:33;;;;;;;;;;;;;;;;;;;;;
2022/01/29 12:25:14;;;;;;;5.63;4.32;;;;;;;10.04;87.00;102027.03;4936568;29;20405;-93
2022/01/29 12:27:55;;;;;;;6.93;4.63;;;;;;;10.30;88.11;102092.56;4889463;29;20047;-93
2022/01/29 12:30:38;;;;;;;5.53;4.57;;;;;;;9.99;87.88;102030.31;4919223;29;20078;-93
2022/01/29 12:33:12;;;;;;;6.80;4.72;;;;;;;9.96;88.18;102038.81;4919103;29;20342;-93
2022/01/29 12:35:44;;;;;;;5.60;3.90;;;;;;;10.13;88.29;102063.94;4918981;29;20476;-93
2022/01/29 12:38:18;;;;;;;4.88;3.83;;;;;;;10.12;87.12;102043.25;4919601;29;20028;-94
2022/01/29 12:40:58;;;;;;;5.70;3.60;;;;;;;10.35;87.59;102070.38;4919680;29;20138;-93
2022/01/29 12:46:50;;;;;;;5.88;4.13;;;;;;;10.10;87.71;102029.88;4867348;29;20052;-92
2022/01/29 12:49:21;;;;;;;5.20;3.30;;;;;;;10.07;87.33;101994.13;4937964;29;20047;-93
2022/01/29 12:52:03;;;;;;;6.68;4.10;;;;;;;10.05;87.61;101972.63;4926773;29;20115;-93
2022/01/29 12:54:33;;;;;;;4.30;3.78;;;;;;;10.11;86.98;101988.19;4922408;29;20416;-93
2022/01/29 12:57:04;;;;;;;5.50;4.28;;;;;;;10.11;86.82;101974.63;4922810;29;20122;-93
2022/01/29 12:59:42;;;;;;;7.07;3.75;;;;;;;10.24;87.01;101992.13;4923364;29;20063;-93
2022/01/29 13:02:15;;;;;;;5.85;3.70;;;;;;;10.16;86.86;101983.03;4892662;29;20044;-93
2022/01/29 13:04:47;;;;;;;5.55;3.63;;;;;;;10.14;86.89;101981.53;4922864;29;20031;-92
2022/01/29 13:07:17;;;;;;;4.87;3.60;;;;;;;10.19;86.49;101971.81;4922965;29;20436;-93
2022/01/29 13:09:42;;;;;;;4.07;3.50;;;;;;;10.38;86.42;101980.47;4922978;29;20119;-93
2022/01/29 13:12:18;;;;;;;8.60;4.15;;;;;;;10.51;86.01;101998.81;4923133;29;20118;-93
2022/01/29 13:14:49;;;;;;;6.57;4.00;;;;;;;10.52;85.47;101995.06;4891217;29;20023;-93
2022/01/29 13:17:16;;;;;;;5.68;4.10;;;;;;;10.37;85.82;101980.66;4922536;29;20118;-93
2022/01/29 13:19:45;;;;;;;6.63;4.10;;;;;;;10.34;85.88;101966.44;4923092;29;20035;-93
2022/01/29 13:22:14;;;;;;;5.20;3.97;;;;;;;10.56;86.29;101998.25;4922651;29;20444;-93
2022/01/29 13:24:44;;;;;;;6.05;4.30;;;;;;;10.86;85.46;102007.22;4922663;29;20039;-93
2022/01/29 13:27:29;;;;;;;8.52;4.43;;;;;;;10.65;85.48;102000.69;4922696;29;20476;-93
2022/01/29 13:30:18;;;;;;;6.32;4.40;;;;;;;10.77;84.93;102021.94;4922909;29;20040;-93
2022/01/29 13:32:45;;;;;;;5.60;4.22;;;;;;;10.41;85.20;101988.25;4922182;29;20062;-92
2022/01/29 13:35:29;;;;;;;7.82;4.28;;;;;;;10.41;85.82;101971.09;4922352;29;20404;-93
2022/01/29 13:38:10;;;;;;;7.93;4.90;;;;;;;10.67;86.36;102014.06;4922003;29;20052;-93
2022/01/29 13:40:44;;;;;;;7.07;4.88;;;;;;;10.59;85.83;101992.47;4939412;29;20064;-93
2022/01/29 13:43:12;;;;;;;6.75;4.32;;;;;;;10.45;84.90;101956.13;4922579;29;20035;-93
2022/01/29 13:45:49;;;;;;;6.85;5.15;;;;;;;10.70;85.81;101973.84;4922526;29;20031;-93
2022/01/29 13:48:17;;;;;;;7.05;4.35;;;;;;;10.98;84.10;102032.03;4921836;29;20407;-93
2022/01/29 13:50:52;;;;;;;6.57;4.70;;;;;;;10.93;84.02;101988.31;4921995;29;20032;-93
2022/01/29 13:53:58;;;;;;;9.25;4.60;;;;;;;11.05;84.13;102003.91;4922256;29;20032;-93
2022/01/29 13:56:48;;;;;;;7.78;4.90;;;;;;;10.66;83.94;101936.41;4938438;29;20038;-93
2022/01/29 13:59:30;;;;;;;7.07;4.38;;;;;;;10.63;84.48;101981.03;4921207;29;20155;-93
2022/01/29 14:02:15;;;;;;;5.72;4.60;;;;;;;10.60;84.68;101967.00;4891291;29;20446;-93
2022/01/29 14:05:30;;;;;;;;;;;;;;;;;;;;;
2022/01/29 14:08:22;;;;;;;6.60;4.70;;;;;;;10.77;84.72;102016.50;4938527;29;20031;-94
2022/01/29 14:11:15;;;;;;;;;;;;;;;;;;;;;
2022/01/29 14:13:50;;;;;;;5.63;4.75;;;;;;;10.49;85.04;102001.69;4924007;29;20035;-93
2022/01/29 14:16:24;;;;;;;7.40;4.70;;;;;;;10.47;84.92;101995.63;4905736;29;20390;-93
2022/01/29 14:18:57;;;;;;;6.57;4.20;;;;;;;10.48;84.55;102010.03;4906589;29;20083;-93
2022/01/29 14:22:20;;;;;;;6.72;4.10;;;;;;;10.48;84.81;101991.91;4921612;29;20433;-94
2022/01/29 14:25:18;;;;;;;;;;;;;;;;;;;;;
2022/01/29 14:27:49;;;;;;;5.93;4.10;;;;;;;10.48;84.46;101983.75;4932103;29;20107;-93
2022/01/29 14:30:21;;;;;;;;;;;;;;;10.87;85.17;102074.06;4921463;29;20488;-94
2022/01/29 14:33:32;;;;;;;;;;;;;;;;;;;;;
2022/01/29 14:36:04;;;;;;;6.53;3.75;;;;;;;10.51;84.45;102036.78;4922593;29;20052;-94
2022/01/29 14:38:31;;;;;;;;;;;;;;;10.94;84.60;102093.16;4921807;29;20491;-94
2022/01/29 14:41:08;;;;;;;;;;;;;;;;;;;;;
2022/01/29 14:43:46;;;;;;;;;;;;;;;;;;;;;
2022/01/29 14:46:20;;;;;;;6.22;2.97;;;;;;;10.64;83.27;102006.28;4938269;29;20043;-94
2022/01/29 14:48:49;;;;;;;3.72;2.85;;;;;;;10.84;83.36;102018.28;4921297;29;20036;-93
2022/01/29 14:51:22;;;;;;;6.10;2.60;;;;;;;10.70;82.38;101997.41;4921359;29;20031;-94
2022/01/29 14:53:53;;;;;;;7.00;2.72;;;;;;;10.71;82.36;101996.38;4920793;29;20416;-94
2022/01/29 14:56:26;;;;;;;4.18;2.15;;;;;;;10.72;82.33;102000.78;4921094;29;20042;-93
2022/01/29 14:59:00;;;;;;;3.88;2.40;;;;;;;10.73;82.71;102010.59;4920514;29;20127;-94
2022/01/29 15:01:29;;;;;;;2.95;2.20;;;;;;;10.84;82.12;101995.72;4921140;29;20043;-94
2022/01/29 15:04:10;;;;;;;6.57;2.50;;;;;;;11.12;81.80;102039.31;4920513;29;20408;-94
2022/01/29 15:06:40;;;;;;;4.60;2.33;;;;;;;10.79;82.21;102011.72;4919302;29;20032;-94
2022/01/29 15:09:20;;;;;;;5.07;2.30;;;;;;;11.09;82.18;102063.28;4920612;29;20032;-93
2022/01/29 15:11:51;;;;;;;3.75;2.40;;;;;;;10.94;82.54;102028.00;4920540;29;20043;-94